createdAt,value
2019-02-02T00:02:07.532Z,68.50
2019-02-02T00:04:34.712Z,66.07
2019-02-02T00:07:01.914Z,70.77
2019-02-02T00:09:29.080Z,71.33
2019-02-02T00:11:56.280Z,73.17
2019-02-02T00:14:23.461Z,74.33
2019-02-02T00:16:50.666Z,68.47
2019-02-02T00:19:17.909Z,71.77
2019-02-02T00:21:45.074Z,74.57
2019-02-02T00:24:12.265Z,67.87
2019-02-02T00:26:39.438Z,74.63
2019-02-02T00:29:06.648Z,76.43
2019-02-02T00:31:33.830Z,76.33
2019-02-02T00:34:01.007Z,82.50
2019-02-02T00:36:28.201Z,76.80
2019-02-02T00:38:55.454Z,82.27
2019-02-02T00:41:22.663Z,70.33
2019-02-02T00:43:49.831Z,74.47
2019-02-02T00:46:17.006Z,84.90
2019-02-02T00:48:44.213Z,79.87
2019-02-02T00:51:11.391Z,78.87
2019-02-02T00:53:38.571Z,79.73
2019-02-02T00:56:05.773Z,79.57
2019-02-02T00:58:32.964Z,81.50
2019-02-02T01:01:00.139Z,91.93
2019-02-02T01:03:27.322Z,82.20
2019-02-02T01:05:54.530Z,87.07
2019-02-02T01:08:21.723Z,84.60
2019-02-02T01:10:48.983Z,78.47
2019-02-02T01:13:16.160Z,86.90
2019-02-02T01:15:43.341Z,93.27
2019-02-02T01:18:10.557Z,86.20
2019-02-02T01:20:37.748Z,91.27
2019-02-02T01:23:05.311Z,86.77
2019-02-02T01:25:32.572Z,91.50
2019-02-02T01:28:05.457Z,91.10
2019-02-02T01:30:28.649Z,95.80
2019-02-02T01:32:55.852Z,94.63
2019-02-02T01:35:23.047Z,85.00
2019-02-02T01:37:50.280Z,91.77
2019-02-02T01:40:19.115Z,95.97
2019-02-02T01:42:46.307Z,89.23
2019-02-02T01:45:14.862Z,86.03
2019-02-02T01:47:42.038Z,92.23
2019-02-02T01:50:10.778Z,89.93
2019-02-02T01:52:37.987Z,91.13
2019-02-02T01:55:06.340Z,87.20
2019-02-02T01:57:33.521Z,95.80
2019-02-02T02:00:00.699Z,98.13
2019-02-02T02:02:27.874Z,95.17
2019-02-02T02:04:55.078Z,86.17
2019-02-02T02:07:22.277Z,90.00
2019-02-02T02:09:49.468Z,97.30
2019-02-02T02:12:16.670Z,94.50
2019-02-02T02:14:43.847Z,107.17
2019-02-02T02:17:11.053Z,88.77
2019-02-02T02:19:38.309Z,107.63
2019-02-02T02:22:05.510Z,98.77
2019-02-02T02:24:32.703Z,90.83
2019-02-02T02:26:59.952Z,106.77
2019-02-02T02:29:27.341Z,101.80
2019-02-02T02:31:54.559Z,106.33
2019-02-02T02:34:21.756Z,100.63
2019-02-02T02:36:48.927Z,104.17
2019-02-02T02:39:16.135Z,102.60
2019-02-02T02:41:43.342Z,107.17
2019-02-02T02:44:10.526Z,99.40
2019-02-02T02:46:37.700Z,101.47
2019-02-02T02:49:04.922Z,106.43
2019-02-02T02:51:32.138Z,98.13
2019-02-02T02:53:59.318Z,106.67
2019-02-02T02:56:26.514Z,103.87
2019-02-02T02:58:53.688Z,99.40
2019-02-02T03:01:20.887Z,112.90
2019-02-02T03:03:48.142Z,111.67
2019-02-02T03:06:15.330Z,104.57
2019-02-02T03:08:42.510Z,104.37
2019-02-02T03:11:09.723Z,106.97
2019-02-02T03:13:36.919Z,104.90
2019-02-02T03:16:04.122Z,101.77
2019-02-02T03:18:31.322Z,112.00
2019-02-02T03:20:58.506Z,117.57
2019-02-02T03:23:25.700Z,99.23
2019-02-02T03:25:52.896Z,105.90
2019-02-02T03:28:20.169Z,113.07
2019-02-02T03:30:47.343Z,111.60
2019-02-02T03:33:14.538Z,101.27
2019-02-02T03:35:41.804Z,112.23
2019-02-02T03:38:08.974Z,111.50
2019-02-02T03:40:36.166Z,107.67
2019-02-02T03:43:03.339Z,110.47
2019-02-02T03:45:30.545Z,123.63
2019-02-02T03:47:57.808Z,117.13
2019-02-02T03:50:25.014Z,109.70
2019-02-02T03:52:52.207Z,114.80
2019-02-02T03:55:19.420Z,113.20
2019-02-02T03:57:46.666Z,118.90
2019-02-02T04:00:18.382Z,111.43
2019-02-02T04:02:45.591Z,100.00
2019-02-02T04:05:14.151Z,110.27
2019-02-02T04:07:41.380Z,112.23
2019-02-02T04:10:09.820Z,119.43
2019-02-02T04:12:36.995Z,119.47
2019-02-02T04:15:05.673Z,111.47
2019-02-02T04:17:32.954Z,110.87
2019-02-02T04:20:00.337Z,108.17
2019-02-02T04:22:27.691Z,114.97
2019-02-02T04:24:54.882Z,109.63
2019-02-02T04:27:22.057Z,123.03
2019-02-02T04:29:49.234Z,113.73
2019-02-02T04:32:16.441Z,109.03
2019-02-02T04:34:43.630Z,109.77
2019-02-02T04:37:10.834Z,114.07
2019-02-02T04:39:38.020Z,117.97
2019-02-02T04:42:05.207Z,118.87
2019-02-02T04:44:32.391Z,105.23
2019-02-02T04:46:59.562Z,114.57
2019-02-02T04:49:26.775Z,115.73
2019-02-02T04:51:53.938Z,121.70
2019-02-02T04:54:21.147Z,114.97
2019-02-02T04:56:48.337Z,121.20
2019-02-02T04:59:15.539Z,110.90
2019-02-02T05:01:42.719Z,125.43
2019-02-02T05:04:09.928Z,115.27
2019-02-02T05:06:37.119Z,108.67
2019-02-02T05:09:05.932Z,109.40
2019-02-02T05:11:33.141Z,106.63
2019-02-02T05:14:00.332Z,109.70
2019-02-02T05:16:27.605Z,102.67
2019-02-02T05:18:54.795Z,107.97
2019-02-02T05:21:21.977Z,110.60
2019-02-02T05:23:49.179Z,114.53
2019-02-02T05:26:16.366Z,107.63
2019-02-02T05:28:43.541Z,113.03
2019-02-02T05:31:10.736Z,109.03
2019-02-02T05:33:37.918Z,108.80
2019-02-02T05:36:05.104Z,106.03
2019-02-02T05:38:32.340Z,115.07
2019-02-02T05:40:59.532Z,114.27
2019-02-02T05:43:26.716Z,114.63
2019-02-02T05:45:53.914Z,118.00
2019-02-02T05:48:21.183Z,114.13
2019-02-02T05:50:48.386Z,116.27
2019-02-02T05:53:15.572Z,112.03
2019-02-02T05:55:42.768Z,107.77
2019-02-02T05:58:09.984Z,113.50
2019-02-02T06:00:44.513Z,111.17
2019-02-02T06:03:11.714Z,107.00
2019-02-02T06:05:38.896Z,106.87
2019-02-02T06:08:06.072Z,112.20
2019-02-02T06:10:33.431Z,115.70
2019-02-02T06:13:00.611Z,119.03
2019-02-02T06:15:28.689Z,115.37
2019-02-02T06:17:56.180Z,106.97
2019-02-02T06:20:23.348Z,113.97
2019-02-02T06:22:50.530Z,105.67
2019-02-02T06:25:17.725Z,117.30
2019-02-02T06:27:44.936Z,118.27
2019-02-02T06:30:13.802Z,107.20
2019-02-02T06:32:40.994Z,103.17
2019-02-02T06:35:09.478Z,119.37
2019-02-02T06:37:36.662Z,111.07
2019-02-02T06:40:04.716Z,106.50
2019-02-02T06:42:31.938Z,107.90
2019-02-02T06:44:59.178Z,112.27
2019-02-02T06:47:26.366Z,109.20
2019-02-02T06:49:53.666Z,116.57
2019-02-02T06:52:20.921Z,108.60
2019-02-02T06:54:48.115Z,107.27
2019-02-02T06:57:15.314Z,110.40
2019-02-02T06:59:42.517Z,117.60
2019-02-02T07:02:09.723Z,106.53
2019-02-02T07:04:36.897Z,102.70
2019-02-02T07:07:04.089Z,108.00
2019-02-02T07:09:31.302Z,114.07
2019-02-02T07:11:58.488Z,102.73
2019-02-02T07:14:25.778Z,126.57
2019-02-02T07:16:52.952Z,116.73
2019-02-02T07:19:20.146Z,107.07
2019-02-02T07:21:47.340Z,122.33
2019-02-02T07:24:14.556Z,115.40
2019-02-02T07:26:41.733Z,116.67
2019-02-02T07:29:08.933Z,112.80
2019-02-02T07:31:36.172Z,120.90
2019-02-02T07:34:03.369Z,111.10
2019-02-02T07:36:30.667Z,118.00
2019-02-02T07:38:58.512Z,110.70
2019-02-02T07:41:25.717Z,122.53
2019-02-02T07:43:52.890Z,111.33
2019-02-02T07:46:20.092Z,123.83
2019-02-02T07:48:47.364Z,109.77
2019-02-02T07:51:14.555Z,109.07
2019-02-02T07:53:41.730Z,121.43
2019-02-02T07:56:08.930Z,121.53
2019-02-02T07:58:36.126Z,124.13
2019-02-02T08:01:03.315Z,116.10
2019-02-02T08:03:30.499Z,117.27
2019-02-02T08:05:57.678Z,112.50
2019-02-02T08:08:24.932Z,128.57
2019-02-02T08:10:54.963Z,119.87
2019-02-02T08:13:21.094Z,124.47
2019-02-02T08:15:48.364Z,111.27
2019-02-02T08:18:15.565Z,116.90
2019-02-02T08:20:42.750Z,109.70
2019-02-02T08:23:09.939Z,121.03
2019-02-02T08:25:37.707Z,114.77
2019-02-02T08:28:04.958Z,132.13
2019-02-02T08:30:35.577Z,121.60
2019-02-02T08:33:01.822Z,106.43
2019-02-02T08:35:29.007Z,111.97
2019-02-02T08:37:56.202Z,118.73
2019-02-02T08:40:23.390Z,116.90
2019-02-02T08:42:50.570Z,115.87
2019-02-02T08:45:17.762Z,115.70
2019-02-02T08:47:45.799Z,115.23
2019-02-02T08:50:20.382Z,124.47
2019-02-02T08:52:47.558Z,123.13
2019-02-02T08:55:14.762Z,117.73
2019-02-02T08:57:42.088Z,115.47
2019-02-02T09:00:11.087Z,118.77
2019-02-02T09:02:38.342Z,125.60
2019-02-02T09:05:07.137Z,111.07
2019-02-02T09:07:34.594Z,126.47
2019-02-02T09:10:01.787Z,117.67
2019-02-02T09:12:28.983Z,124.17
2019-02-02T09:14:56.158Z,133.30
2019-02-02T09:17:23.372Z,115.60
2019-02-02T09:19:50.616Z,118.47
2019-02-02T09:22:17.814Z,118.20
2019-02-02T09:24:44.998Z,118.37
2019-02-02T09:27:12.244Z,119.90
2019-02-02T09:29:39.464Z,128.97
2019-02-02T09:32:06.654Z,130.67
2019-02-02T09:34:33.924Z,122.93
2019-02-02T09:37:01.114Z,123.03
2019-02-02T09:39:28.310Z,125.77
2019-02-02T09:41:55.486Z,121.43
2019-02-02T09:44:22.665Z,127.00
2019-02-02T09:46:49.871Z,110.60
2019-02-02T09:49:17.050Z,120.53
2019-02-02T09:51:44.255Z,132.20
2019-02-02T09:54:11.460Z,132.37
2019-02-02T09:56:38.707Z,127.00
2019-02-02T09:59:05.893Z,125.83
2019-02-02T10:01:33.082Z,133.23
2019-02-02T10:04:00.427Z,118.20
2019-02-02T10:06:27.621Z,124.93
2019-02-02T10:08:54.802Z,130.47
2019-02-02T10:11:21.995Z,127.33
2019-02-02T10:13:51.964Z,129.97
2019-02-02T10:16:18.094Z,134.53
2019-02-02T10:18:45.270Z,118.87
2019-02-02T10:21:12.451Z,122.83
2019-02-02T10:23:39.662Z,127.37
2019-02-02T10:26:06.863Z,123.53
2019-02-02T10:28:34.106Z,132.67
2019-02-02T10:31:01.316Z,126.47
2019-02-02T10:33:28.499Z,128.40
2019-02-02T10:35:55.679Z,115.13
2019-02-02T10:38:22.880Z,120.93
2019-02-02T10:40:50.137Z,116.50
2019-02-02T10:43:17.343Z,126.30
2019-02-02T10:45:44.610Z,132.47
2019-02-02T10:48:11.854Z,118.37
2019-02-02T10:50:39.039Z,138.47
2019-02-02T10:53:06.229Z,128.57
2019-02-02T10:55:33.423Z,122.33
2019-02-02T10:58:00.694Z,120.90
2019-02-02T11:00:29.142Z,131.10
2019-02-02T11:02:56.347Z,139.43
2019-02-02T11:05:23.732Z,131.83
2019-02-02T11:07:54.197Z,127.47
2019-02-02T11:10:21.262Z,122.50
2019-02-02T11:12:48.547Z,136.50
2019-02-02T11:15:16.550Z,127.57
2019-02-02T11:17:43.818Z,120.93
2019-02-02T11:20:17.572Z,122.80
2019-02-02T11:22:44.379Z,139.13
2019-02-02T11:25:11.974Z,139.77
2019-02-02T11:27:39.354Z,123.50
2019-02-02T11:30:08.459Z,132.60
2019-02-02T11:32:35.709Z,127.17
2019-02-02T11:35:03.118Z,137.80
2019-02-02T11:37:30.305Z,134.03
2019-02-02T11:39:57.497Z,130.63
2019-02-02T11:42:25.325Z,122.73
2019-02-02T11:44:52.506Z,143.57
2019-02-02T11:47:19.735Z,134.03
2019-02-02T11:49:46.925Z,130.73
2019-02-02T11:52:14.106Z,116.50
2019-02-02T11:54:41.325Z,125.60
2019-02-02T11:57:08.507Z,115.50
2019-02-02T11:59:35.746Z,124.37
2019-02-02T12:02:14.047Z,107.97
2019-02-02T12:04:31.880Z,115.60
2019-02-02T12:06:59.073Z,123.50
2019-02-02T12:09:26.283Z,124.30
2019-02-02T12:11:53.473Z,123.13
2019-02-02T12:14:20.664Z,128.20
2019-02-02T12:16:47.862Z,129.70
2019-02-02T12:19:15.131Z,124.20
2019-02-02T12:21:42.313Z,113.60
2019-02-02T12:24:14.321Z,129.27
2019-02-02T12:26:38.455Z,120.77
2019-02-02T12:29:05.628Z,137.03
2019-02-02T12:31:32.821Z,131.37
2019-02-02T12:34:00.014Z,120.90
2019-02-02T12:36:27.257Z,137.40
2019-02-02T12:38:54.465Z,123.07
2019-02-02T12:41:21.651Z,132.20
2019-02-02T12:43:49.674Z,135.30
2019-02-02T12:46:16.931Z,115.37
2019-02-02T12:48:44.195Z,125.80
2019-02-02T12:51:11.380Z,128.43
2019-02-02T12:53:38.590Z,125.47
2019-02-02T12:56:05.773Z,135.53
2019-02-02T12:58:32.959Z,127.27
2019-02-02T13:01:00.167Z,138.30
2019-02-02T13:03:27.428Z,125.37
2019-02-02T13:05:54.692Z,127.13
2019-02-02T13:08:21.894Z,140.67
2019-02-02T13:10:49.082Z,139.40
2019-02-02T13:13:16.278Z,142.80
2019-02-02T13:15:43.481Z,141.17
2019-02-02T13:18:10.656Z,142.10
2019-02-02T13:20:37.859Z,149.80
2019-02-02T13:23:05.051Z,139.73
2019-02-02T13:25:32.239Z,143.87
2019-02-02T13:27:59.443Z,149.10
2019-02-02T13:30:33.882Z,145.80
2019-02-02T13:33:01.135Z,141.50
2019-02-02T13:35:29.562Z,133.97
2019-02-02T13:37:56.765Z,137.73
2019-02-02T13:40:23.944Z,128.17
2019-02-02T13:42:51.137Z,124.30
2019-02-02T13:45:19.424Z,135.77
2019-02-02T13:47:46.707Z,117.33
2019-02-02T13:50:15.104Z,126.03
2019-02-02T13:52:42.348Z,119.37
2019-02-02T13:55:09.540Z,128.53
2019-02-02T13:57:36.734Z,128.80
2019-02-02T14:00:05.570Z,127.37
2019-02-02T14:02:32.765Z,117.57
2019-02-02T14:04:59.969Z,127.03
2019-02-02T14:07:27.177Z,118.63
2019-02-02T14:09:54.351Z,110.90
2019-02-02T14:12:21.559Z,103.00
2019-02-02T14:14:48.748Z,106.00
2019-02-02T14:17:15.926Z,107.53
2019-02-02T14:19:43.114Z,97.83
2019-02-02T14:22:10.311Z,104.43
2019-02-02T14:24:37.506Z,103.23
2019-02-02T14:27:04.804Z,98.53
2019-02-02T14:29:32.068Z,82.47
2019-02-02T14:31:59.235Z,94.07
2019-02-02T14:34:26.419Z,87.53
2019-02-02T14:36:53.620Z,95.27
2019-02-02T14:39:20.835Z,87.50
2019-02-02T14:41:48.039Z,79.20
2019-02-02T14:44:15.229Z,80.87
2019-02-02T14:46:42.422Z,77.07
2019-02-02T14:49:09.613Z,71.07
2019-02-02T14:51:36.798Z,72.87
2019-02-02T14:54:03.974Z,72.63
2019-02-02T14:56:31.166Z,74.20
2019-02-02T14:58:58.421Z,72.70
2019-02-02T15:01:25.595Z,76.93
2019-02-02T15:03:52.791Z,73.67
2019-02-02T15:06:19.993Z,67.33
2019-02-02T15:08:47.176Z,75.07
2019-02-02T15:11:14.615Z,69.47
2019-02-02T15:13:41.806Z,64.50
2019-02-02T15:16:08.995Z,75.30
2019-02-02T15:18:36.256Z,66.80
2019-02-02T15:21:03.465Z,64.40
2019-02-02T15:23:30.647Z,67.53
2019-02-02T15:25:57.829Z,71.97
2019-02-02T15:28:25.027Z,74.63
2019-02-02T15:30:52.216Z,71.00
2019-02-02T15:33:19.431Z,67.27
2019-02-02T15:35:46.609Z,69.27
2019-02-02T15:38:13.798Z,67.40
2019-02-02T15:40:41.002Z,71.73
2019-02-02T15:43:08.179Z,67.53
2019-02-02T15:45:35.399Z,75.33
2019-02-02T15:48:03.298Z,83.40
2019-02-02T15:50:30.471Z,83.20
2019-02-02T15:52:57.692Z,95.07
2019-02-02T15:55:24.989Z,87.47
2019-02-02T15:57:52.186Z,89.73
2019-02-02T16:00:20.425Z,90.43
2019-02-02T16:02:47.621Z,93.53
2019-02-02T16:05:15.774Z,82.13
2019-02-02T16:07:42.949Z,86.37
2019-02-02T16:10:17.769Z,88.00
2019-02-02T16:12:44.959Z,91.13
2019-02-02T16:15:12.145Z,94.23
2019-02-02T16:17:39.327Z,81.73
2019-02-02T16:20:10.816Z,93.20
2019-02-02T16:22:38.008Z,90.23
2019-02-02T16:25:06.936Z,80.97
2019-02-02T16:27:34.183Z,87.70
2019-02-02T16:30:01.411Z,82.93
2019-02-02T16:32:28.653Z,81.80
2019-02-02T16:34:55.852Z,83.53
2019-02-02T16:37:23.035Z,74.67
2019-02-02T16:39:50.220Z,78.33
2019-02-02T16:42:17.408Z,82.00
2019-02-02T16:44:44.588Z,79.37
2019-02-02T16:47:11.760Z,80.67
2019-02-02T16:49:41.871Z,81.97
2019-02-02T16:52:09.079Z,81.70
2019-02-02T16:54:36.287Z,70.37
2019-02-02T16:57:03.469Z,71.83
2019-02-02T16:59:30.706Z,75.37
2019-02-02T17:01:57.926Z,70.67
2019-02-02T17:04:25.110Z,70.20
2019-02-02T17:06:52.293Z,73.10
2019-02-02T17:09:19.470Z,73.70
2019-02-02T17:11:46.691Z,75.73
2019-02-02T17:14:13.862Z,76.03
2019-02-02T17:16:41.062Z,69.30
2019-02-02T17:19:08.261Z,67.07
2019-02-02T17:21:35.454Z,75.37
2019-02-02T17:24:02.648Z,69.93
2019-02-02T17:26:29.843Z,76.17
2019-02-02T17:28:57.049Z,78.07
2019-02-02T17:31:24.276Z,71.23
2019-02-02T17:33:51.506Z,77.03
2019-02-02T17:36:18.747Z,74.10
2019-02-02T17:38:45.946Z,75.47
2019-02-02T17:41:13.117Z,75.87
2019-02-02T17:43:40.319Z,80.90
2019-02-02T17:46:07.527Z,80.40
2019-02-02T17:48:34.709Z,72.87
2019-02-02T17:51:01.905Z,71.50
2019-02-02T17:53:29.097Z,78.40
2019-02-02T17:55:56.295Z,80.83
2019-02-02T17:58:23.478Z,76.77
2019-02-02T18:00:52.403Z,85.63
2019-02-02T18:03:19.613Z,86.83
2019-02-02T18:05:46.798Z,85.27
2019-02-02T18:08:13.991Z,73.67
2019-02-02T18:10:41.159Z,75.70
2019-02-02T18:13:08.381Z,85.33
2019-02-02T18:15:35.562Z,69.73
2019-02-02T18:18:02.742Z,77.80
2019-02-02T18:20:29.996Z,81.17
2019-02-02T18:22:57.174Z,75.77
2019-02-02T18:25:24.354Z,73.83
2019-02-02T18:27:51.573Z,70.90
2019-02-02T18:30:20.030Z,69.20
2019-02-02T18:32:47.332Z,75.30
2019-02-02T18:35:14.957Z,80.27
2019-02-02T18:37:42.228Z,70.07
2019-02-02T18:40:10.490Z,64.10
2019-02-02T18:42:37.766Z,71.13
2019-02-02T18:45:06.583Z,70.13
2019-02-02T18:47:33.767Z,67.67
2019-02-02T18:50:00.967Z,72.80
2019-02-02T18:52:28.710Z,66.70
2019-02-02T18:54:55.883Z,72.87
2019-02-02T18:57:23.095Z,77.30
2019-02-02T18:59:50.339Z,69.73
2019-02-02T19:02:17.533Z,67.43
2019-02-02T19:04:44.723Z,64.97
2019-02-02T19:07:11.914Z,72.43
2019-02-02T19:09:39.122Z,69.23
2019-02-02T19:12:06.326Z,67.77
2019-02-02T19:14:33.580Z,65.47
2019-02-02T19:17:01.434Z,65.43
2019-02-02T19:19:28.832Z,69.93
2019-02-02T19:21:56.013Z,73.33
2019-02-02T19:24:23.217Z,60.00
2019-02-02T19:26:50.402Z,75.13
2019-02-02T19:29:17.594Z,64.63
2019-02-02T19:31:44.775Z,67.23
2019-02-02T19:34:11.954Z,66.07
2019-02-02T19:36:39.146Z,65.30
2019-02-02T19:39:07.109Z,60.90
2019-02-02T19:41:34.391Z,61.23
2019-02-02T19:44:01.587Z,64.60
2019-02-02T19:46:28.762Z,64.77
2019-02-02T19:48:55.970Z,60.57
2019-02-02T19:51:23.139Z,64.67
2019-02-02T19:53:50.336Z,59.73
2019-02-02T19:56:17.546Z,62.43
2019-02-02T19:58:44.838Z,62.77
2019-02-02T20:01:12.081Z,65.53
2019-02-02T20:03:39.830Z,62.07
2019-02-02T20:06:07.440Z,61.90
2019-02-02T20:08:34.682Z,60.43
2019-02-02T20:11:02.468Z,68.60
2019-02-02T20:13:30.825Z,67.27
2019-02-02T20:15:58.046Z,66.73
2019-02-02T20:18:25.256Z,73.70
2019-02-02T20:20:53.026Z,67.17
2019-02-02T20:23:20.326Z,67.47
2019-02-02T20:25:47.513Z,68.27
2019-02-02T20:28:14.715Z,72.50
2019-02-02T20:30:41.904Z,68.30
2019-02-02T20:33:09.079Z,69.70
2019-02-02T20:35:41.892Z,72.63
2019-02-02T20:38:05.192Z,78.37
2019-02-02T20:40:32.390Z,75.27
2019-02-02T20:42:59.580Z,70.90
2019-02-02T20:45:28.439Z,92.37
2019-02-02T20:47:55.698Z,80.93
2019-02-02T20:50:22.950Z,79.70
2019-02-02T20:52:50.212Z,83.60
2019-02-02T20:55:19.026Z,84.20
2019-02-02T20:57:47.108Z,80.17
2019-02-02T21:00:15.325Z,86.90
2019-02-02T21:02:42.888Z,87.27
2019-02-02T21:05:10.140Z,93.27
2019-02-02T21:07:37.324Z,89.93
2019-02-02T21:10:06.317Z,85.53
2019-02-02T21:12:34.286Z,95.03
2019-02-02T21:15:01.552Z,84.87
2019-02-02T21:17:28.775Z,77.67
2019-02-02T21:19:55.976Z,91.47
2019-02-02T21:22:23.227Z,88.63
2019-02-02T21:24:50.551Z,78.23
2019-02-02T21:27:18.157Z,80.80
2019-02-02T21:29:45.349Z,78.80
2019-02-02T21:32:12.620Z,77.17
2019-02-02T21:34:39.878Z,81.03
2019-02-02T21:37:07.182Z,73.30
2019-02-02T21:39:34.444Z,75.00
2019-02-02T21:42:01.752Z,74.20
2019-02-02T21:44:29.665Z,72.87
2019-02-02T21:46:56.907Z,73.87
2019-02-02T21:49:24.107Z,75.43
2019-02-02T21:51:51.368Z,77.33
2019-02-02T21:54:18.627Z,74.37
2019-02-02T21:56:45.901Z,73.00
2019-02-02T21:59:13.256Z,71.53
2019-02-02T22:01:40.463Z,59.77
2019-02-02T22:04:07.725Z,65.47
2019-02-02T22:06:35.880Z,57.47
2019-02-02T22:09:04.319Z,50.10
2019-02-02T22:11:31.496Z,48.87
2019-02-02T22:13:58.662Z,51.47
2019-02-02T22:16:25.854Z,52.23
2019-02-02T22:18:53.032Z,45.10
2019-02-02T22:21:20.212Z,46.73
2019-02-02T22:23:47.474Z,36.80
2019-02-02T22:26:14.647Z,44.07
2019-02-02T22:28:41.824Z,38.43
2019-02-02T22:31:09.597Z,40.27
2019-02-02T22:33:36.875Z,38.77
2019-02-02T22:36:04.121Z,35.97
2019-02-02T22:38:31.374Z,38.27
2019-02-02T22:40:58.552Z,37.43
2019-02-02T22:43:25.750Z,35.77
2019-02-02T22:45:53.513Z,35.67
2019-02-02T22:48:20.698Z,33.10
2019-02-02T22:50:47.931Z,36.50
2019-02-02T22:53:15.181Z,38.60
2019-02-02T22:55:42.367Z,38.50
2019-02-02T22:58:09.573Z,35.43
2019-02-02T23:00:51.672Z,33.13
2019-02-02T23:03:20.597Z,38.57
2019-02-02T23:06:07.524Z,33.20
2019-02-02T23:08:52.853Z,33.57
2019-02-02T23:11:39.886Z,31.90
2019-02-02T23:14:08.730Z,35.40
2019-02-02T23:16:36.198Z,37.50
2019-02-02T23:19:03.454Z,31.97
2019-02-02T23:21:30.651Z,37.33
2019-02-02T23:23:57.822Z,37.30
2019-02-02T23:26:25.096Z,35.63
2019-02-02T23:28:52.330Z,36.57
2019-02-02T23:31:20.430Z,34.47
2019-02-02T23:33:47.655Z,38.03
2019-02-02T23:36:14.907Z,33.57
2019-02-02T23:38:42.189Z,42.17
2019-02-02T23:41:09.368Z,33.57
2019-02-02T23:43:36.547Z,32.63
2019-02-02T23:46:03.756Z,27.43
2019-02-02T23:48:31.811Z,22.43
2019-02-02T23:50:59.077Z,22.93
2019-02-02T23:53:26.345Z,24.00
2019-02-02T23:55:53.552Z,24.83
2019-02-02T23:58:20.731Z,25.23
